Time;durP1;ratioP1;P1;durP2;ratioP2;P2;SDS_P1;SDS_P2;PMS_P1;PMS_P2;Temp;Humidity;BMP_temperature;BMP_pressure;BME280_temperature;BME280_humidity;BME280_pressure;Samples;Min_cycle;Max_cycle;Signal;HPM_P1;HPM_P2
2022/02/02 00:02:12;;;;;;;36.70;20.33;;;;;;;3.42;76.44;99384.34;5079918;28;20123;-21
2022/02/02 00:04:44;;;;;;;37.35;20.95;;;;;;;3.47;76.56;99386.41;5080790;28;20110;-21
2022/02/02 00:09:36;;;;;;;34.97;19.55;;;;;;;2.85;79.39;99399.16;5079668;28;20024;-21
2022/02/02 00:14:41;;;;;;;36.80;20.77;;;;;;;2.73;79.61;99380.38;5078486;28;20047;-21
2022/02/02 00:17:30;;;;;;;36.08;19.90;;;;;;;2.90;79.41;99380.16;5082448;28;20040;-21
2022/02/02 00:20:06;;;;;;;34.17;21.25;;;;;;;3.04;78.86;99367.94;5078781;28;20456;-20
2022/02/02 00:22:37;;;;;;;35.50;21.02;;;;;;;3.14;78.63;99374.53;5078360;28;20139;-21
2022/02/02 00:27:32;;;;;;;33.35;19.67;;;;;;;2.45;81.24;99367.06;5060721;28;20105;-21
2022/02/02 00:30:01;;;;;;;32.80;19.75;;;;;;;2.38;81.60;99355.66;5078192;28;20541;-21
2022/02/02 00:34:52;;;;;;;40.72;22.00;;;;;;;2.70;80.95;99369.41;5078339;28;20040;-21
2022/02/02 00:37:19;;;;;;;41.13;23.27;;;;;;;2.92;79.39;99368.47;5079012;28;20028;-21
2022/02/02 00:39:44;;;;;;;35.97;21.98;;;;;;;3.02;79.69;99373.41;5072580;28;20032;-21
2022/02/02 00:42:10;;;;;;;38.50;21.88;;;;;;;2.99;79.07;99357.97;5069840;28;20024;-21
2022/02/02 00:44:41;;;;;;;199.80;82.15;;;;;;;3.14;78.50;99374.53;5069774;28;20033;-21
2022/02/02 00:47:06;;;;;;;53.78;27.80;;;;;;;3.36;77.70;99374.56;5069537;28;20089;-21
2022/02/02 00:49:32;;;;;;;32.60;18.60;;;;;;;2.95;79.49;99373.34;5051628;28;20032;-21
2022/02/02 00:51:59;;;;;;;33.75;19.35;;;;;;;2.98;78.92;99351.91;5069548;28;20020;-21
2022/02/02 00:54:27;;;;;;;33.28;19.40;;;;;;;2.90;78.92;99353.81;5069814;28;20032;-22
2022/02/02 00:56:52;;;;;;;31.08;17.02;;;;;;;2.86;79.69;99371.84;5051555;28;20029;-21
2022/02/02 00:59:18;;;;;;;31.50;19.02;;;;;;;2.78;79.75;99356.16;5068653;28;20048;-21
2022/02/02 01:01:44;;;;;;;30.17;16.70;;;;;;;2.73;79.54;99380.38;5051263;28;20040;-21
2022/02/02 01:04:09;;;;;;;28.80;16.88;;;;;;;3.02;79.00;99378.66;5034709;28;20035;-21
2022/02/02 01:06:39;;;;;;;29.77;17.17;;;;;;;3.04;79.16;99381.94;5069524;28;20570;-21
2022/02/02 01:20:01;;;;;;;33.95;18.08;;;;;;;2.49;81.51;99354.38;5069148;28;20539;-21
2022/02/02 01:27:55;;;;;;;30.10;17.70;;;;;;;2.47;81.30;99343.22;5068636;28;20423;-22
2022/02/02 01:30:22;;;;;;;30.92;17.17;;;;;;;2.47;81.81;99348.47;5068972;28;20469;-21
2022/02/02 01:32:48;;;;;;;28.47;16.03;;;;;;;2.21;82.92;99345.31;5068797;28;20441;-21
2022/02/02 01:35:14;;;;;;;29.83;17.08;;;;;;;2.13;83.29;99324.38;5069403;28;20024;-21
2022/02/02 01:37:43;;;;;;;32.63;18.95;;;;;;;2.14;83.23;99318.09;5051418;28;20120;-20
2022/02/02 01:40:14;;;;;;;32.88;18.58;;;;;;;2.42;81.95;99323.53;5068974;28;20043;-20
2022/02/02 01:42:48;;;;;;;35.28;17.88;;;;;;;2.37;82.06;99328.53;5068982;28;20036;-21
2022/02/02 01:45:19;;;;;;;33.65;18.45;;;;;;;2.34;81.98;99307.84;5050639;28;20039;-20
2022/02/02 01:50:37;;;;;;;39.67;20.42;;;;;;;2.74;80.77;99305.66;5068956;28;20040;-23
2022/02/02 01:55:38;;;;;;;38.80;20.33;;;;;;;2.72;79.20;99268.19;5068606;28;20472;-21
2022/02/02 02:00:50;;;;;;;35.55;19.55;;;;;;;2.51;81.42;99289.19;5068608;28;20090;-21
2022/02/02 02:03:16;;;;;;;30.45;17.02;;;;;;;2.49;81.92;99278.84;5050304;28;20040;-20
2022/02/02 02:05:41;;;;;;;28.38;16.58;;;;;;;2.58;81.45;99267.22;5068348;28;20032;-21
2022/02/02 02:08:07;;;;;;;27.52;16.17;;;;;;;2.47;81.35;99259.00;5068076;28;20047;-21
2022/02/02 02:10:33;;;;;;;26.35;14.88;;;;;;;2.55;81.85;99266.78;5068180;28;20027;-21
2022/02/02 02:13:05;;;;;;;29.70;15.57;;;;;;;2.48;82.15;99271.97;5067962;28;20158;-21
2022/02/02 02:15:32;;;;;;;27.38;15.20;;;;;;;2.47;82.07;99272.97;5068086;28;20035;-20
2022/02/02 02:17:58;;;;;;;33.13;17.27;;;;;;;2.47;81.25;99280.84;5050306;28;20036;-21
2022/02/02 02:20:24;;;;;;;29.70;16.58;;;;;;;2.59;81.19;99276.75;5049225;28;20020;-21
2022/02/02 02:22:49;;;;;;;29.30;15.70;;;;;;;2.27;82.49;99279.81;5067807;28;20055;-21
2022/02/02 02:25:22;;;;;;;28.75;14.95;;;;;;;2.41;82.45;99285.06;5067976;28;20790;-20
2022/02/02 02:27:49;;;;;;;27.95;15.27;;;;;;;2.39;82.08;99279.16;5049935;28;20484;-20
2022/02/02 02:30:26;;;;;;;29.13;15.82;;;;;;;2.66;81.65;99274.19;5068019;28;20789;-21
2022/02/02 02:57:02;;;;;;;30.70;16.25;;;;;;;2.41;82.61;99242.13;5067351;28;20120;-20
2022/02/02 02:59:42;;;;;;;30.83;15.98;;;;;;;2.53;81.65;99237.19;5067121;28;20048;-22
2022/02/02 04:05:06;;;;;;;28.08;14.73;;;;;;;2.84;80.06;99207.09;5070826;28;20502;-21
2022/02/02 04:07:29;;;;;;;30.08;15.93;;;;;;;2.79;80.13;99205.03;5068205;28;20044;-21
2022/02/02 04:09:54;;;;;;;30.83;16.00;;;;;;;2.61;80.50;99208.13;5070526;28;20032;-21
2022/02/02 04:58:15;;;;;;;50.72;26.60;;;;;;;2.93;79.97;99208.59;5069711;28;20488;-20
2022/02/02 05:07:09;;;;;;;44.30;24.73;;;;;;;2.93;79.74;99211.25;5069792;28;20488;-20
2022/02/02 05:09:17;;;;;;;38.72;20.83;;;;;;;2.75;80.97;99215.13;5060121;28;20054;-20
2022/02/02 05:13:14;;;;;;;38.58;20.00;;;;;;;2.76;80.64;99216.78;5054133;28;20024;-21
2022/02/02 05:43:54;;;;;;;62.38;36.15;;;;;;;2.86;81.29;99213.00;5069129;28;20047;-21
2022/02/02 05:51:39;;;;;;;53.83;31.80;;;;;;;2.88;80.27;99222.34;5068855;28;20064;-20
2022/02/02 05:54:06;;;;;;;43.90;26.13;;;;;;;2.90;79.72;99222.16;5068571;28;20029;-22
2022/02/02 05:56:37;;;;;;;54.35;28.90;;;;;;;2.95;79.75;99225.03;5068832;28;20546;-21
2022/02/02 05:59:02;;;;;;;46.70;26.48;;;;;;;2.66;80.42;99216.28;5033406;28;20082;-22
2022/02/02 06:01:28;;;;;;;47.75;24.33;;;;;;;2.81;80.54;99219.63;5067893;28;20029;-22
2022/02/02 06:03:54;;;;;;;49.53;26.77;;;;;;;3.19;79.17;99232.53;5033747;28;20039;-21
2022/02/02 06:06:22;;;;;;;48.08;28.38;;;;;;;2.76;79.77;99224.69;5050794;28;20032;-24
2022/02/02 06:08:48;;;;;;;50.40;28.05;;;;;;;2.90;80.50;99238.78;5068635;28;20860;-21
2022/02/02 06:11:23;;;;;;;51.88;29.92;;;;;;;2.75;81.63;99230.94;5068634;28;20036;-21
2022/02/02 06:13:52;;;;;;;50.58;30.08;;;;;;;2.70;80.84;99248.31;5068464;28;20037;-21
2022/02/02 06:16:19;;;;;;;51.97;32.55;;;;;;;2.72;81.71;99251.56;5068342;28;20500;-21
2022/02/02 06:18:45;;;;;;;35.25;18.88;;;;;;;2.68;81.56;99256.41;5068596;28;20037;-21
2022/02/02 06:21:12;;;;;;;29.35;16.83;;;;;;;2.62;82.19;99262.41;5068579;28;20524;-21
2022/02/02 06:23:43;;;;;;;27.88;15.50;;;;;;;2.64;81.61;99244.59;5050504;28;20032;-21
2022/02/02 06:26:17;;;;;;;25.38;14.02;;;;;;;2.77;81.57;99262.34;5068438;28;20036;-21
2022/02/02 06:28:44;;;;;;;25.10;13.82;;;;;;;2.73;81.08;99264.53;5033424;28;20488;-21
2022/02/02 06:31:13;;;;;;;32.42;17.80;;;;;;;2.58;81.65;99258.53;5033900;28;20037;-21
2022/02/02 06:33:39;;;;;;;32.15;16.02;;;;;;;2.55;82.17;99248.34;5068157;28;20033;-21
2022/02/02 06:36:06;;;;;;;28.48;13.90;;;;;;;2.68;81.63;99268.75;5017033;28;20065;-20
2022/02/02 06:38:32;;;;;;;33.55;17.10;;;;;;;2.61;82.20;99255.50;5068165;28;20038;-21
2022/02/02 06:40:58;;;;;;;30.00;15.65;;;;;;;2.49;81.75;99244.63;5067854;28;20033;-21
2022/02/02 06:43:24;;;;;;;26.98;14.70;;;;;;;2.87;81.73;99267.31;5067219;28;20098;-20
2022/02/02 06:45:50;;;;;;;27.40;15.70;;;;;;;3.01;80.54;99261.16;5068019;28;20370;-21
2022/02/02 06:48:15;;;;;;;28.42;15.02;;;;;;;3.07;79.92;99260.41;5068007;28;20032;-22
2022/02/02 06:50:45;;;;;;;26.60;13.80;;;;;;;2.75;79.93;99230.94;5049727;28;20072;-21
2022/02/02 06:56:28;;;;;;;25.52;13.35;;;;;;;2.97;80.63;99270.44;5050089;28;20025;-20
2022/02/02 07:12:49;;;;;;;37.80;20.40;;;;;;;2.94;80.39;99261.09;5049155;28;20025;-21
2022/02/02 07:23:25;;;;;;;39.63;20.90;;;;;;;2.81;80.95;99276.75;5067385;28;20036;-21
2022/02/02 07:26:11;;;;;;;45.75;24.33;;;;;;;2.87;80.35;99267.31;5067324;28;20060;-21
2022/02/02 07:32:06;;;;;;;47.40;25.25;;;;;;;3.04;80.25;99281.03;5066795;28;20024;-21
2022/02/02 07:34:00;;;;;;;56.47;31.05;;;;;;;3.03;79.53;99268.88;5024385;28;20086;-21
2022/02/02 07:36:32;;;;;;;64.55;37.10;;;;;;;3.05;79.14;99286.13;5032695;28;20048;-22
2022/02/02 07:39:07;;;;;;;58.17;32.25;;;;;;;2.71;80.09;99284.97;5067242;28;20504;-20
2022/02/02 07:41:38;;;;;;;51.05;27.38;;;;;;;2.73;80.83;99290.84;5048968;28;20032;-20
2022/02/02 07:44:18;;;;;;;53.72;28.55;;;;;;;2.95;79.87;99267.97;5050025;28;20033;-21
2022/02/02 07:46:48;;;;;;;50.58;28.30;;;;;;;2.73;80.67;99288.22;5050988;28;20036;-21
2022/02/02 07:49:15;;;;;;;57.10;30.88;;;;;;;2.80;80.03;99304.91;5049642;28;20024;-21
2022/02/02 07:51:42;;;;;;;57.97;31.63;;;;;;;2.47;80.79;99286.13;5066750;28;20037;-21
2022/02/02 07:54:15;;;;;;;59.63;33.88;;;;;;;2.46;82.19;99281.88;5066533;28;20111;-20
2022/02/02 07:56:42;;;;;;;61.90;32.83;;;;;;;2.57;81.66;99299.78;5066946;28;20098;-21
2022/02/02 07:59:36;;;;;;;62.25;31.33;;;;;;;2.79;80.81;99294.56;5032576;28;20053;-21
2022/02/02 08:02:03;;;;;;;53.60;25.60;;;;;;;2.63;81.06;99276.38;5066716;28;20029;-21
2022/02/02 08:04:30;;;;;;;54.57;26.47;;;;;;;2.64;81.69;99299.09;5066581;28;20500;-21
2022/02/02 08:06:56;;;;;;;44.63;24.73;;;;;;;2.41;82.03;99286.84;5066746;28;20270;-21
2022/02/02 08:09:37;;;;;;;38.22;21.50;;;;;;;2.28;82.92;99292.78;5049122;28;20586;-21
2022/02/02 08:12:05;;;;;;;39.08;20.98;;;;;;;2.55;82.37;99282.56;5050950;28;20044;-21
2022/02/02 08:14:33;;;;;;;43.97;22.05;;;;;;;2.68;81.15;99288.00;5066669;28;20028;-21
2022/02/02 08:16:58;;;;;;;42.25;23.50;;;;;;;2.52;82.22;99288.22;5065878;28;20036;-21
2022/02/02 08:19:24;;;;;;;40.97;23.88;;;;;;;2.34;83.03;99302.56;5068433;28;20036;-21
2022/02/02 08:21:49;;;;;;;38.75;21.10;;;;;;;2.35;83.21;99292.84;5069641;28;20028;-20
2022/02/02 08:24:15;;;;;;;48.80;25.25;;;;;;;2.60;82.58;99296.81;5070264;28;20041;-20
2022/02/02 08:26:40;;;;;;;51.22;26.33;;;;;;;2.74;81.23;99276.72;5069975;28;20783;-22
2022/02/02 08:29:08;;;;;;;55.75;29.42;;;;;;;3.06;79.31;99285.09;5070011;28;20403;-21
2022/02/02 08:31:34;;;;;;;57.15;30.60;;;;;;;3.42;78.33;99295.53;5069489;28;20032;-22
2022/02/02 08:34:02;;;;;;;66.50;33.85;;;;;;;3.36;78.50;99295.50;5070061;28;20040;-21
2022/02/02 08:36:28;;;;;;;62.22;31.45;;;;;;;3.12;79.15;99302.78;5052605;28;20071;-21
2022/02/02 08:39:14;;;;;;;57.45;31.33;;;;;;;3.06;79.21;99300.91;5070026;28;20404;-20
2022/02/02 08:41:48;;;;;;;64.43;33.28;;;;;;;2.94;79.53;99281.34;5070032;28;20024;-20
2022/02/02 08:45:13;;;;;;;60.20;32.42;;;;;;;3.03;79.81;99311.03;5070053;28;20071;-20
2022/02/02 08:47:07;;;;;;;60.25;33.88;;;;;;;2.74;81.02;99303.03;5047127;28;20063;-20
2022/02/02 08:49:37;;;;;;;56.55;30.67;;;;;;;2.84;80.23;99291.38;5052007;28;20404;-21
2022/02/02 08:52:04;;;;;;;56.47;33.38;;;;;;;2.99;80.09;99321.09;5069592;28;20048;-20
2022/02/02 08:54:44;;;;;;;46.88;24.48;;;;;;;2.88;80.28;99311.06;5069460;28;20396;-21
2022/02/02 09:00:00;;;;;;;46.53;24.15;;;;;;;3.16;81.57;99311.94;5069731;28;20485;-20
2022/02/02 09:02:30;;;;;;;49.50;23.85;;;;;;;2.84;81.00;99318.53;5069500;28;20035;-21
2022/02/02 09:07:40;;;;;;;46.17;23.65;;;;;;;2.76;81.86;99321.28;5069667;28;20051;-21
2022/02/02 09:10:11;;;;;;;57.42;25.35;;;;;;;2.72;82.21;99326.09;5069543;28;20404;-21
2022/02/02 09:20:05;;;;;;;45.10;24.33;;;;;;;2.78;82.96;99327.19;5069045;28;20561;-21
2022/02/02 09:24:19;;;;;;;72.40;36.55;;;;;;;2.60;83.04;99311.78;5007045;28;20088;-21
2022/02/02 09:32:34;;;;;;;149.25;55.90;;;;;;;2.78;81.50;99321.91;5068736;28;20039;-21
2022/02/02 09:35:00;;;;;;;117.10;48.25;;;;;;;3.05;80.41;99315.09;5068996;28;20063;-20
2022/02/02 09:37:27;;;;;;;171.35;62.40;;;;;;;3.10;80.09;99302.16;5068398;28;20028;-21
2022/02/02 09:40:14;;;;;;;301.30;113.47;;;;;;;3.18;79.83;99307.28;5068642;28;20194;-21
2022/02/02 09:42:37;;;;;;;77.78;42.42;;;;;;;3.40;78.90;99302.00;5068111;28;20105;-21
2022/02/02 09:45:09;;;;;;;41.17;22.75;;;;;;;3.39;79.17;99303.00;5069069;28;20024;-21
2022/02/02 09:47:47;;;;;;;38.70;21.17;;;;;;;3.31;78.87;99296.06;5051189;28;20039;-20
2022/02/02 09:50:25;;;;;;;42.72;23.38;;;;;;;3.22;79.36;99299.81;5051850;28;20039;-22
2022/02/02 09:52:58;;;;;;;;;;;;;;;3.01;79.72;99292.75;5068728;28;20397;-20
2022/02/02 10:00:47;;;;;;;38.47;20.30;;;;;;;2.83;80.70;99255.53;5050440;28;20040;-22
2022/02/02 10:06:43;;;;;;;38.28;21.83;;;;;;;3.04;80.01;99281.84;5067977;28;20028;-22
2022/02/02 10:14:16;;;;;;;47.25;24.25;;;;;;;3.41;80.19;99277.25;5050181;28;20044;-21
2022/02/02 10:16:46;;;;;;;43.08;24.85;;;;;;;3.17;80.79;99266.16;5067845;28;20021;-21
2022/02/02 10:19:16;;;;;;;41.05;23.92;;;;;;;3.39;79.66;99266.09;5067962;28;20039;-21
2022/02/02 10:21:42;;;;;;;62.90;31.83;;;;;;;3.32;79.88;99257.34;5067933;28;20033;-21
2022/02/02 10:24:07;;;;;;;50.55;26.65;;;;;;;3.34;80.02;99260.59;5049372;28;20040;-21
2022/02/02 10:26:33;;;;;;;47.55;24.08;;;;;;;3.45;79.75;99241.59;5049895;28;20085;-21
2022/02/02 10:29:08;;;;;;;39.58;21.33;;;;;;;3.32;79.41;99228.34;5033643;28;20480;-20
2022/02/02 10:31:54;;;;;;;32.88;19.25;;;;;;;3.53;79.19;99244.09;5049524;28;20040;-21
2022/02/02 10:34:20;;;;;;;36.10;22.30;;;;;;;3.06;80.24;99231.59;5067023;28;20036;-21
2022/02/02 10:37:06;;;;;;;41.63;23.15;;;;;;;3.25;80.56;99240.66;5067403;28;20029;-21
2022/02/02 10:39:47;;;;;;;45.08;26.40;;;;;;;3.15;80.65;99241.81;5077365;28;20077;-21
2022/02/02 10:42:12;;;;;;;42.40;22.20;;;;;;;3.22;80.49;99247.94;5085209;28;20039;-20
2022/02/02 10:44:41;;;;;;;52.13;31.27;;;;;;;3.13;80.95;99232.47;5087658;28;20024;-22
2022/02/02 10:47:21;;;;;;;37.80;21.58;;;;;;;2.75;82.46;99235.38;5087615;28;20487;-21
2022/02/02 10:57:49;;;;;;;37.67;19.88;;;;;;;2.72;83.25;99241.84;5087445;28;20133;-21
2022/02/02 11:00:30;;;;;;;36.67;19.13;;;;;;;2.45;84.65;99239.94;5073341;28;20043;-22
2022/02/02 11:08:25;;;;;;;38.28;21.48;;;;;;;2.75;83.48;99240.66;5087556;28;20054;-20
2022/02/02 11:10:51;;;;;;;39.22;22.50;;;;;;;3.11;82.50;99240.56;5069397;28;20062;-20
2022/02/02 11:13:17;;;;;;;37.45;21.80;;;;;;;3.05;81.92;99241.34;5086942;28;20073;-20
2022/02/02 11:15:48;;;;;;;45.95;26.42;;;;;;;3.03;81.92;99237.25;5052565;28;20035;-21
2022/02/02 11:18:21;;;;;;;41.53;24.08;;;;;;;2.74;82.04;99224.06;5069144;28;20031;-20
2022/02/02 11:20:46;;;;;;;35.30;20.73;;;;;;;3.29;80.32;99220.81;5069654;28;20020;-20
2022/02/02 11:23:12;;;;;;;34.15;19.00;;;;;;;3.48;79.83;99235.97;5069311;28;20101;-20
2022/02/02 11:25:59;;;;;;;35.25;19.27;;;;;;;3.29;80.01;99241.91;5069061;28;20030;-21
2022/02/02 11:28:29;;;;;;;32.42;18.40;;;;;;;3.27;80.79;99238.63;5087101;28;20483;-21
2022/02/02 11:31:07;;;;;;;28.27;17.65;;;;;;;3.09;80.83;99232.03;5087266;28;20032;-20
2022/02/02 11:33:46;;;;;;;32.53;18.13;;;;;;;3.05;80.95;99230.78;5069681;28;20032;-21
2022/02/02 11:36:21;;;;;;;31.77;18.80;;;;;;;3.00;80.92;99235.81;5087144;28;20073;-21
2022/02/02 11:38:47;;;;;;;34.30;19.80;;;;;;;2.97;81.43;99217.75;5086988;28;20047;-20
2022/02/02 11:49:53;;;;;;;31.25;18.95;;;;;;;3.05;81.35;99219.44;5086752;28;20028;-20
2022/02/02 11:52:31;;;;;;;32.30;17.90;;;;;;;3.16;81.08;99214.44;5087712;28;20028;-21
2022/02/02 11:54:56;;;;;;;33.47;17.58;;;;;;;3.27;80.33;99209.66;5090977;28;20113;-20
2022/02/02 11:57:25;;;;;;;35.60;18.42;;;;;;;3.32;79.75;99202.00;5090240;28;20048;-21
2022/02/02 12:00:12;;;;;;;33.97;18.17;;;;;;;3.36;79.17;99211.16;5090342;28;20566;-22
2022/02/02 12:07:53;;;;;;;30.17;17.55;;;;;;;3.40;79.56;99207.13;5073121;28;20024;-21
2022/02/02 12:10:54;;;;;;;31.30;17.65;;;;;;;3.32;79.37;99197.53;5090322;28;20796;-20
2022/02/02 12:49:03;;;;;;;36.83;19.88;;;;;;;4.34;78.16;99203.88;5090075;28;20040;-21
2022/02/02 12:57:04;;;;;;;50.10;26.42;;;;;;;4.18;79.00;99217.44;5089964;28;20059;-21
2022/02/02 13:02:11;;;;;;;47.83;25.67;;;;;;;4.12;79.08;99194.47;5089855;28;20068;-20
2022/02/02 13:04:37;;;;;;;43.53;24.65;;;;;;;4.26;78.67;99217.25;5088678;28;20024;-20
2022/02/02 13:07:19;;;;;;;42.95;25.17;;;;;;;4.18;79.78;99209.53;5071605;28;20110;-21
2022/02/02 13:09:50;;;;;;;64.18;37.65;;;;;;;4.09;79.93;99205.44;5089743;28;20103;-21
2022/02/02 13:23:56;;;;;;;29.35;15.80;;;;;;;4.50;77.27;99210.63;5088884;28;20223;-20
2022/02/02 13:31:52;;;;;;;27.48;15.30;;;;;;;4.52;77.37;99205.16;5088969;28;20099;-21
2022/02/02 13:34:26;;;;;;;30.05;18.05;;;;;;;4.18;78.53;99209.53;5088976;28;20168;-22
2022/02/02 14:33:21;;;;;;;59.63;36.15;;;;;;;3.99;80.09;99190.78;5087712;28;20031;-20
2022/02/02 14:35:47;;;;;;;56.70;36.47;;;;;;;3.83;80.97;99209.59;5087460;28;20415;-21
2022/02/02 14:38:14;;;;;;;53.63;31.70;;;;;;;3.80;81.43;99199.41;5087702;28;20036;-20
2022/02/02 14:41:09;;;;;;;60.97;34.42;;;;;;;3.62;81.59;99198.13;5087793;28;20062;-21
2022/02/02 14:43:38;;;;;;;60.08;37.42;;;;;;;3.56;81.51;99180.44;5086494;28;20085;-22
2022/02/02 14:46:07;;;;;;;62.38;37.05;;;;;;;3.60;82.16;99199.34;5087686;28;20032;-20
2022/02/02 14:48:38;;;;;;;51.22;29.17;;;;;;;3.37;82.13;99192.53;5087623;28;20058;-21
2022/02/02 14:51:44;;;;;;;61.78;36.58;;;;;;;3.42;82.69;99194.56;5088077;28;20020;-21
2022/02/02 15:29:07;;;;;;;47.17;24.40;;;;;;;3.76;78.81;99196.38;5090996;28;20035;-21
2022/02/02 15:31:35;;;;;;;73.43;33.78;;;;;;;3.73;78.51;99217.84;5091080;28;20509;-21
2022/02/02 15:34:02;;;;;;;59.65;31.83;;;;;;;3.61;79.26;99222.03;5091169;28;20020;-20
2022/02/02 15:38:56;;;;;;;57.83;30.67;;;;;;;3.31;80.39;99229.34;5091481;28;20036;-22
2022/02/02 15:41:38;;;;;;;66.88;35.67;;;;;;;3.25;80.22;99224.84;5090759;28;20391;-21
2022/02/02 15:55:38;;;;;;;67.75;35.17;;;;;;;3.92;78.30;99240.03;5090718;28;20089;-20
2022/02/02 15:58:31;;;;;;;136.73;63.05;;;;;;;3.62;79.15;99242.94;5089526;28;20419;-21
2022/02/02 16:03:24;;;;;;;55.85;28.83;;;;;;;3.82;79.75;99255.41;5090394;28;20040;-22
2022/02/02 16:05:54;;;;;;;60.38;33.83;;;;;;;3.78;79.29;99257.66;5090655;28;20063;-21
2022/02/02 16:08:23;;;;;;;120.57;52.70;;;;;;;3.77;78.92;99240.19;5090945;28;20039;-21
2022/02/02 16:13:48;;;;;;;69.95;36.22;;;;;;;3.94;79.26;99245.97;5090353;28;20036;-21
2022/02/02 16:16:15;;;;;;;85.03;41.00;;;;;;;3.62;80.47;99252.69;5089808;28;20105;-21
2022/02/02 16:18:51;;;;;;;94.97;46.45;;;;;;;3.42;81.00;99242.00;5090629;28;20040;-21
2022/02/02 16:37:36;;;;;;;53.95;27.38;;;;;;;3.78;79.27;99272.63;5090107;28;20020;-21
2022/02/02 16:40:05;;;;;;;56.30;29.35;;;;;;;3.81;79.52;99265.16;5088849;28;20031;-21
2022/02/02 16:45:15;;;;;;;53.47;27.02;;;;;;;3.42;81.18;99265.72;5089723;28;20108;-22
2022/02/02 16:47:41;;;;;;;51.17;26.27;;;;;;;3.48;81.36;99267.59;5090028;28;20032;-20
2022/02/02 16:50:09;;;;;;;49.35;28.15;;;;;;;3.57;79.83;99260.34;5089683;28;20114;-20
2022/02/02 16:52:35;;;;;;;47.85;25.63;;;;;;;3.39;81.20;99263.47;5089641;28;20020;-21
2022/02/02 16:55:06;;;;;;;47.80;25.15;;;;;;;3.03;82.69;99261.78;5089636;28;20085;-20
2022/02/02 17:24:14;;;;;;;59.67;34.40;;;;;;;3.36;82.05;99264.66;5089357;28;20458;-20
2022/02/02 17:30:15;;;;;;;122.82;59.63;;;;;;;2.79;83.55;99284.84;5073215;28;20492;-21
2022/02/02 17:32:50;;;;;;;129.90;63.85;;;;;;;2.74;83.54;99289.88;5088999;28;20077;-20
2022/02/02 17:38:10;;;;;;;91.53;46.03;;;;;;;2.91;82.93;99277.28;5089298;28;20059;-20
2022/02/02 17:41:25;;;;;;;82.45;40.45;;;;;;;2.81;82.65;99290.75;5088789;28;20029;-21
2022/02/02 18:21:16;;;;;;;84.60;44.75;;;;;;;2.38;84.28;99276.72;5087619;28;20095;-22
2022/02/02 18:29:42;;;;;;;50.65;27.35;;;;;;;1.80;88.39;99297.63;5087933;28;20130;-20
2022/02/02 18:34:48;;;;;;;48.72;25.83;;;;;;;2.26;85.58;99260.59;5087767;28;20059;-20
2022/02/02 18:53:06;;;;;;;;;;;;;;;2.24;85.41;99328.34;5086178;28;20032;-22
2022/02/02 19:14:38;;;;;;;96.32;48.45;;;;;;;2.55;84.44;99336.00;5087414;28;20384;-20
2022/02/02 20:04:42;;;;;;;86.47;44.50;;;;;;;3.27;80.21;99330.88;5086601;28;20119;-21
2022/02/02 20:07:28;;;;;;;157.77;58.83;;;;;;;3.19;80.33;99331.84;5086525;28;20032;-21
2022/02/02 20:12:26;;;;;;;;;;;;;;;2.84;80.67;99334.34;5086603;28;20097;-21
2022/02/02 20:14:52;;;;;;;93.45;47.90;;;;;;;2.81;81.13;99334.69;5089603;28;19912;-20
2022/02/02 20:17:20;;;;;;;80.30;43.80;;;;;;;2.67;81.97;99336.34;5089860;28;20710;-20
2022/02/02 20:19:51;;;;;;;83.28;45.92;;;;;;;2.87;81.47;99333.13;5090129;28;20173;-21
2022/02/02 20:22:20;;;;;;;88.93;49.10;;;;;;;3.10;80.50;99336.41;5090145;28;20567;-21
2022/02/02 20:24:56;;;;;;;98.43;53.15;;;;;;;2.93;81.01;99332.41;5090076;28;20115;-22
2022/02/02 20:27:22;;;;;;;100.38;54.45;;;;;;;2.88;81.51;99326.84;5089905;28;20043;-21
2022/02/02 20:29:48;;;;;;;85.10;46.42;;;;;;;3.10;80.89;99301.34;5090044;28;20034;-20
2022/02/02 20:32:13;;;;;;;74.10;40.28;;;;;;;3.00;80.63;99317.47;5089899;28;20040;-22
2022/02/02 20:34:38;;;;;;;68.72;38.08;;;;;;;2.79;80.88;99318.25;5089715;28;20036;-21
2022/02/02 20:37:04;;;;;;;107.30;61.80;;;;;;;2.89;80.33;99310.06;5085782;28;20040;-21
2022/02/02 20:39:51;;;;;;;113.07;60.92;;;;;;;2.85;80.55;99321.97;5075386;28;20052;-21
2022/02/02 20:42:20;;;;;;;120.40;60.85;;;;;;;2.61;82.45;99332.66;5073838;28;20044;-20
2022/02/02 21:01:36;;;;;;;78.57;41.35;;;;;;;3.00;78.94;99304.28;5069123;28;20101;-21
2022/02/02 21:10:59;;;;;;;74.00;38.95;;;;;;;2.46;80.29;99338.97;5069261;28;20116;-21
2022/02/02 21:13:46;;;;;;;77.68;38.80;;;;;;;2.38;81.15;99324.88;5050891;28;20780;-21
2022/02/02 21:16:14;;;;;;;75.20;37.88;;;;;;;2.80;79.73;99343.63;5068608;28;20107;-21
2022/02/02 21:18:41;;;;;;;105.07;39.03;;;;;;;3.04;78.75;99331.88;5069214;28;20036;-21
2022/02/02 21:21:21;;;;;;;70.20;35.50;;;;;;;3.05;78.76;99330.09;5068827;28;20016;-20
2022/02/02 21:29:02;;;;;;;66.05;36.03;;;;;;;2.76;79.33;99332.63;5068895;28;20036;-20
2022/02/02 21:31:28;;;;;;;73.65;35.75;;;;;;;2.64;79.52;99306.97;5068452;28;20028;-21
2022/02/02 21:33:53;;;;;;;69.55;37.67;;;;;;;2.62;79.60;99315.06;5068647;28;20032;-20
2022/02/02 21:36:19;;;;;;;76.05;37.92;;;;;;;2.93;78.59;99327.13;5068599;28;20779;-22
2022/02/02 21:41:23;;;;;;;71.07;36.00;;;;;;;3.22;77.69;99332.25;5068044;28;20043;-21
2022/02/02 21:43:49;;;;;;;75.75;40.13;;;;;;;2.90;78.80;99340.66;5051146;28;20029;-21
2022/02/02 21:46:15;;;;;;;84.25;39.08;;;;;;;2.92;78.23;99331.59;5068167;28;20032;-21
2022/02/02 21:48:42;;;;;;;214.07;101.53;;;;;;;2.61;79.38;99326.56;5068450;28;20032;-21
2022/02/02 21:51:09;;;;;;;238.65;105.15;;;;;;;2.64;78.79;99328.03;5068294;28;20027;-20
2022/02/02 21:53:35;;;;;;;142.85;70.65;;;;;;;2.50;80.15;99333.13;5067949;28;20477;-21
2022/02/02 21:56:00;;;;;;;82.15;40.85;;;;;;;2.63;79.16;99345.63;5068552;28;20492;-21
2022/02/02 21:58:26;;;;;;;79.07;40.17;;;;;;;2.68;78.95;99340.63;5067944;28;20060;-21
2022/02/02 22:00:51;;;;;;;76.78;42.55;;;;;;;2.06;80.73;99355.03;5068742;28;20393;-21
2022/02/02 22:03:17;;;;;;;82.75;43.30;;;;;;;2.24;80.89;99349.41;5068978;28;20047;-20
2022/02/02 22:05:42;;;;;;;67.18;36.03;;;;;;;2.56;79.51;99347.38;5069276;28;20032;-20
2022/02/02 22:08:10;;;;;;;76.13;37.15;;;;;;;2.61;78.67;99363.41;5068865;28;20037;-20
2022/02/02 22:10:39;;;;;;;75.43;40.80;;;;;;;2.56;78.86;99357.91;5051344;28;20119;-20
2022/02/02 22:13:05;;;;;;;68.47;35.80;;;;;;;2.54;78.60;99347.56;5069105;28;20500;-20
2022/02/02 22:15:40;;;;;;;72.55;37.35;;;;;;;2.65;78.50;99369.94;5050596;28;20035;-21
2022/02/02 22:18:05;;;;;;;75.60;39.65;;;;;;;2.38;78.92;99367.00;5068612;28;20029;-21
2022/02/02 22:20:31;;;;;;;67.97;35.97;;;;;;;2.32;79.80;99356.41;5076767;28;20069;-21
2022/02/02 22:22:56;;;;;;;71.25;34.95;;;;;;;2.40;79.59;99369.44;5087581;28;20066;-21
2022/02/02 22:25:22;;;;;;;61.88;33.80;;;;;;;2.54;78.83;99375.69;5069897;28;20036;-21
2022/02/02 22:27:48;;;;;;;72.70;37.75;;;;;;;2.34;79.93;99371.00;5050444;28;20081;-20
2022/02/02 22:30:13;;;;;;;102.25;50.30;;;;;;;2.07;81.17;99377.72;5068456;28;20036;-21
2022/02/02 22:32:39;;;;;;;90.32;45.92;;;;;;;2.05;81.81;99376.25;5068115;28;20035;-20
2022/02/02 22:35:05;;;;;;;87.25;42.28;;;;;;;1.81;81.72;99359.72;5049974;28;20067;-21
2022/02/02 22:37:31;;;;;;;79.70;41.03;;;;;;;2.03;82.03;99389.59;5066995;28;20035;-20
2022/02/02 22:39:57;;;;;;;103.63;50.78;;;;;;;2.39;80.44;99368.63;5068150;28;20040;-20
2022/02/02 22:42:24;;;;;;;93.28;49.10;;;;;;;2.40;79.24;99380.78;5068039;28;20051;-20
2022/02/02 22:44:52;;;;;;;83.03;42.72;;;;;;;2.40;79.19;99364.19;5068529;28;20109;-20
2022/02/02 22:47:20;;;;;;;88.35;46.00;;;;;;;2.42;78.92;99383.25;5067625;28;20128;-22
2022/02/02 22:49:48;;;;;;;134.77;60.72;;;;;;;2.15;79.89;99384.72;5067734;28;20458;-21
2022/02/02 22:52:15;;;;;;;113.50;53.22;;;;;;;2.23;80.21;99384.63;5067779;28;20488;-21
2022/02/02 22:54:41;;;;;;;107.53;52.58;;;;;;;2.26;79.79;99367.66;5049848;28;20123;-21
2022/02/02 22:57:07;;;;;;;89.20;46.80;;;;;;;2.26;79.56;99378.16;5067892;28;20115;-21
2022/02/02 22:59:33;;;;;;;105.00;50.05;;;;;;;2.33;78.96;99369.38;5067011;28;20083;-20
2022/02/02 23:02:09;;;;;;;91.88;44.45;;;;;;;2.32;79.07;99383.50;5049666;28;20021;-21